createdAt,value
2019-02-05T00:01:08.600Z,97534.62
2019-02-05T00:06:15.914Z,97538.04
2019-02-05T00:11:23.381Z,97544.49
2019-02-05T00:16:32.832Z,97550.98
2019-02-05T00:21:41.372Z,97536.95
2019-02-05T00:26:48.839Z,97526.80
2019-02-05T00:31:56.819Z,97504.42
2019-02-05T00:37:04.022Z,97497.52
2019-02-05T00:42:11.391Z,97491.09
2019-02-05T00:47:18.672Z,97493.80
2019-02-05T00:52:25.927Z,97492.00
2019-02-05T00:57:33.475Z,97497.81
2019-02-05T01:02:41.035Z,97492.30
2019-02-05T01:07:48.394Z,97485.33
2019-02-05T01:12:56.046Z,97487.09
2019-02-05T01:18:03.381Z,97475.75
2019-02-05T01:23:10.899Z,97478.99
2019-02-05T01:28:18.154Z,97477.61
2019-02-05T01:33:25.563Z,97470.47
2019-02-05T01:38:32.867Z,97463.17
2019-02-05T01:43:40.375Z,97446.67
2019-02-05T01:48:47.905Z,97442.55
2019-02-05T01:53:55.391Z,97446.42
2019-02-05T01:59:02.393Z,97430.94
2019-02-05T02:04:09.593Z,97422.52
2019-02-05T02:09:16.905Z,97420.32
2019-02-05T02:14:23.895Z,97411.05
2019-02-05T02:19:30.885Z,97410.87
2019-02-05T02:24:37.889Z,97409.27
2019-02-05T02:29:44.825Z,97408.73
2019-02-05T02:34:52.854Z,97398.30
2019-02-05T02:39:59.835Z,97400.09
2019-02-05T02:45:07.828Z,97389.95
2019-02-05T02:50:14.915Z,97387.95
2019-02-05T02:55:21.846Z,97375.47
2019-02-05T03:00:29.738Z,97371.52
2019-02-05T03:05:36.741Z,97371.58
2019-02-05T03:10:43.807Z,97370.08
2019-02-05T03:16:02.177Z,97384.03
2019-02-05T03:21:09.442Z,97384.95
2019-02-05T03:26:16.485Z,97391.27
2019-02-05T03:31:23.877Z,97388.03
2019-02-05T03:36:30.965Z,97394.19
2019-02-05T03:41:37.949Z,97389.79
2019-02-05T03:46:44.949Z,97389.55
2019-02-05T03:51:52.859Z,97396.73
2019-02-05T03:56:59.969Z,97411.47
2019-02-05T04:02:09.334Z,97404.56
2019-02-05T04:07:16.706Z,97410.78
2019-02-05T04:12:24.377Z,97418.28
2019-02-05T04:17:32.865Z,97415.85
2019-02-05T04:22:39.036Z,97419.25
2019-02-05T04:27:47.454Z,97420.53
2019-02-05T04:32:54.840Z,97409.05
2019-02-05T04:38:01.461Z,97404.73
2019-02-05T04:43:08.547Z,97417.95
2019-02-05T04:48:15.660Z,97404.16
2019-02-05T04:53:23.236Z,97405.95
2019-02-05T04:58:30.225Z,97416.84
2019-02-05T05:03:36.935Z,97438.00
2019-02-05T05:08:44.034Z,97442.53
2019-02-05T05:13:51.537Z,97454.39
2019-02-05T05:18:58.645Z,97439.79
2019-02-05T05:24:05.946Z,97445.01
2019-02-05T05:29:12.945Z,97466.00
2019-02-05T05:34:19.959Z,97467.62
2019-02-05T05:39:27.028Z,97455.63
2019-02-05T05:44:34.018Z,97463.58
2019-02-05T05:49:41.389Z,97457.33
2019-02-05T05:54:48.523Z,97455.77
2019-02-05T05:59:55.690Z,97458.05
2019-02-05T06:05:02.826Z,97453.82
2019-02-05T06:10:09.915Z,97452.53
2019-02-05T06:15:16.910Z,97447.26
2019-02-05T06:20:23.909Z,97443.45
2019-02-05T06:25:31.629Z,97451.97
2019-02-05T06:30:38.845Z,97443.44
2019-02-05T06:35:45.924Z,97438.97
2019-02-05T06:40:52.911Z,97443.11
2019-02-05T06:45:59.693Z,97434.01
2019-02-05T06:51:06.804Z,97444.56
2019-02-05T06:56:13.791Z,97451.64
2019-02-05T07:01:20.992Z,97457.33
2019-02-05T07:06:27.988Z,97462.05
2019-02-05T07:11:34.982Z,97464.66
2019-02-05T07:16:41.978Z,97467.17
2019-02-05T07:21:48.771Z,97474.84
2019-02-05T07:26:55.857Z,97468.66
2019-02-05T07:32:02.877Z,97471.42
2019-02-05T07:37:10.216Z,97475.52
2019-02-05T07:42:16.946Z,97481.19
2019-02-05T07:47:23.956Z,97482.90
2019-02-05T07:52:30.938Z,97473.00
2019-02-05T07:57:37.931Z,97476.63
2019-02-05T08:02:45.377Z,97480.00
2019-02-05T08:07:52.530Z,97481.91
2019-02-05T08:12:59.641Z,97486.64
2019-02-05T08:18:06.732Z,97486.83
2019-02-05T08:23:14.848Z,97496.42
2019-02-05T08:28:22.382Z,97497.83
2019-02-05T08:33:29.451Z,97494.33
2019-02-05T08:38:36.511Z,97505.41
2019-02-05T08:43:43.437Z,97502.38
2019-02-05T08:48:50.513Z,97508.95
2019-02-05T08:53:57.576Z,97511.17
2019-02-05T08:59:05.156Z,97505.56
2019-02-05T09:04:12.653Z,97506.61
2019-02-05T09:09:19.747Z,97503.98
2019-02-05T09:14:28.221Z,97498.41
2019-02-05T09:19:46.633Z,97488.73
2019-02-05T09:24:53.826Z,97493.52
2019-02-05T09:30:00.603Z,97500.97
2019-02-05T09:35:07.837Z,97506.27
2019-02-05T09:40:14.757Z,97506.61
2019-02-05T09:45:21.620Z,97510.72
2019-02-05T09:50:30.886Z,97503.80
2019-02-05T09:55:38.335Z,97514.78
2019-02-05T10:00:45.385Z,97524.59
2019-02-05T10:05:52.870Z,97521.42
2019-02-05T13:55:00.283Z,97502.70
2019-02-05T14:00:09.070Z,97504.44
2019-02-05T14:05:15.961Z,97506.70
2019-02-05T14:10:24.613Z,97512.64
2019-02-05T14:15:32.380Z,97521.45
2019-02-05T14:20:40.638Z,97516.41
2019-02-05T14:25:48.895Z,97519.41
2019-02-05T14:30:56.368Z,97514.94
2019-02-05T14:36:03.768Z,97509.34
2019-02-05T14:41:10.972Z,97519.41
2019-02-05T14:46:18.765Z,97515.59
2019-02-05T14:51:25.981Z,97504.97
2019-02-05T14:56:33.370Z,97515.17
2019-02-05T15:01:43.114Z,97524.61
2019-02-05T15:06:50.577Z,97522.89
2019-02-05T15:11:57.842Z,97533.94
2019-02-05T15:17:05.379Z,97524.67
2019-02-05T15:22:12.755Z,97522.41
2019-02-05T15:27:20.563Z,97526.75
2019-02-05T15:33:19.917Z,97528.94
2019-02-05T15:38:27.630Z,97538.37
2019-02-05T15:43:34.646Z,97530.32
2019-02-05T15:48:41.823Z,97533.27
2019-02-05T15:53:49.126Z,97542.27
2019-02-05T15:58:56.517Z,97535.27
2019-02-05T16:04:03.960Z,97538.70
2019-02-05T16:09:11.131Z,97538.45
2019-02-05T16:14:18.457Z,97549.65
2019-02-05T16:19:25.379Z,97548.89
2019-02-05T16:24:33.367Z,97556.52
2019-02-05T16:29:41.150Z,97552.09
2019-02-05T16:34:48.646Z,97561.33
2019-02-05T16:39:56.058Z,97565.08
2019-02-05T16:45:03.974Z,97578.16
2019-02-05T16:50:11.403Z,97578.95
2019-02-05T16:55:18.931Z,97587.58
2019-02-05T17:00:26.617Z,97597.57
2019-02-05T17:05:33.991Z,97600.09
2019-02-05T17:10:41.373Z,97614.21
2019-02-05T17:15:48.690Z,97610.73
2019-02-05T17:20:56.098Z,97623.16
2019-02-05T17:26:03.481Z,97621.70
2019-02-05T17:31:10.722Z,97625.51
2019-02-05T17:36:19.236Z,97626.98
2019-02-05T17:41:26.842Z,97626.03
2019-02-05T17:46:34.404Z,97631.80
2019-02-05T17:51:42.057Z,97631.80
2019-02-05T17:56:49.388Z,97632.41
2019-02-05T18:01:56.717Z,97639.17
2019-02-05T18:07:04.374Z,97650.33
2019-02-05T18:12:12.483Z,97645.41
2019-02-05T18:17:20.036Z,97656.78
2019-02-05T18:22:28.132Z,97660.63
2019-02-05T18:27:36.859Z,97661.20
2019-02-05T18:32:46.026Z,97664.03
2019-02-05T18:37:54.021Z,97667.85
2019-02-05T18:43:01.875Z,97662.55
2019-02-05T18:48:08.872Z,97658.20
2019-02-05T18:53:17.659Z,97664.31
2019-02-05T18:58:26.868Z,97662.61
2019-02-05T19:03:35.126Z,97664.31
2019-02-05T19:08:43.570Z,97665.22
2019-02-05T19:13:51.898Z,97667.62
2019-02-05T19:19:00.835Z,97667.56
2019-02-05T19:24:10.749Z,97660.37
2019-02-05T19:29:19.514Z,97668.27
2019-02-05T19:34:29.377Z,97671.10
2019-02-05T19:39:38.873Z,97676.23
2019-02-05T19:44:48.602Z,97684.00
2019-02-05T19:49:57.630Z,97678.81
2019-02-05T19:55:05.925Z,97677.52
2019-02-05T20:00:25.659Z,97674.39
2019-02-05T20:05:34.729Z,97682.59
2019-02-05T23:02:46.676Z,97693.69
2019-02-05T23:07:54.399Z,97698.41
2019-02-05T23:13:05.500Z,97699.14
2019-02-05T23:18:15.053Z,97691.03
2019-02-05T23:23:24.613Z,97687.58
2019-02-05T23:28:32.943Z,97683.28
2019-02-05T23:33:41.026Z,97691.87
2019-02-05T23:38:49.217Z,97692.01
2019-02-05T23:43:57.949Z,97688.39
2019-02-05T23:49:05.445Z,97690.30
2019-02-05T23:54:14.064Z,97685.25
2019-02-05T23:59:21.404Z,97685.30
